首页
METAR-TAF:

METAR-TAF

机场 :

Cranwell, 英格兰

纬度: 53-02N, 经度: 000-30W, 海拔: 67米

当前天气观测

该预报发布于48分钟前的02:50 UTC
风速10节,风向东转东北
温度 5°C
湿度 93%
气压 993 hPa
能见度10公里或以上

METAR: EGYD 140250Z AUTO 06010KT 9999 // FEW039/// BKN050/// 05/04 Q0993

时间: 03:38 (03:38 UTC)

预报

该预报发布于13小时和51分钟前的13:47 UTC
预报有效从13日的 15点(UTC)到 13日的 19点(UTC)
风速7节,风向
能见度10公里或以上
少量云层高于1800英尺
散云层高于3000英尺
几率 30% :
短暂存在
从 13日的 15点(UTC)到 13日的 16点(UTC)
散云层高于1800英尺
几率 30%
从 13日的 17点(UTC)到 13日的 19点(UTC)
能見度: 5000
轻雾

TAF: EGYD 131347Z 1315/1319 19007KT 9999 FEW018 SCT030 PROB30 TEMPO 1315/1316 SCT018 PROB30 1317/1319 5000 BR

超过4000个机场的气象观测和天气预报(METAR&TAF报告)。

可查询的气象台以黄色和红色小点在地图上表示。

将鼠标移到小点上方,可查看气象台名称。

然后点击查看天气观测和预报。

如需切换地图:点击带黑十字的绿色按钮放大地图;点击带横线的绿色按钮缩小地图;或者点击绿色箭头查看邻近地区的地图。


METAR-TAF: